createdAt,value
2022-11-21T00:01:40.546Z,3.60
2022-11-21T00:04:42.348Z,2.88
2022-11-21T00:07:46.004Z,3.50
2022-11-21T00:10:48.731Z,3.05
2022-11-21T00:13:50.441Z,3.35
2022-11-21T00:16:56.063Z,3.13
2022-11-21T00:19:59.077Z,3.20
2022-11-21T00:23:01.138Z,2.97
2022-11-21T00:26:11.053Z,2.78
2022-11-21T00:29:13.056Z,3.00
2022-11-21T00:32:14.807Z,3.42
2022-11-21T00:35:16.679Z,3.03
2022-11-21T00:38:18.538Z,3.25
2022-11-21T00:41:20.497Z,3.20
2022-11-21T00:44:22.495Z,3.08
2022-11-21T00:47:24.330Z,3.22
2022-11-21T00:50:26.155Z,3.20
2022-11-21T00:53:28.512Z,2.70
2022-11-21T00:56:30.453Z,3.60
2022-11-21T00:59:33.554Z,3.92
2022-11-21T01:02:35.278Z,2.95
2022-11-21T01:05:37.148Z,3.17
2022-11-21T01:08:40.954Z,3.45
2022-11-21T01:11:42.681Z,2.90
2022-11-21T01:14:44.382Z,3.55
2022-11-21T01:17:46.302Z,3.13
2022-11-21T01:20:48.164Z,3.78
2022-11-21T01:23:50.777Z,2.85
2022-11-21T01:26:54.224Z,3.00
2022-11-21T01:29:58.744Z,3.38
2022-11-21T01:33:00.784Z,2.65
2022-11-21T01:36:29.751Z,3.22
2022-11-21T01:39:31.600Z,3.13
2022-11-21T01:42:53.134Z,2.42
2022-11-21T01:46:10.293Z,3.20
2022-11-21T01:49:23.999Z,2.78
2022-11-21T01:55:29.680Z,3.38
2022-11-21T01:58:34.888Z,2.85
2022-11-21T02:01:38.130Z,3.00
2022-11-21T02:04:42.184Z,3.05
2022-11-21T02:07:47.419Z,3.40
2022-11-21T02:11:04.188Z,3.40
2022-11-21T02:14:06.579Z,3.15
2022-11-21T02:17:10.613Z,3.47
2022-11-21T02:20:16.556Z,3.47
2022-11-21T02:24:00.041Z,3.67
2022-11-21T02:27:02.697Z,3.22
2022-11-21T02:30:07.482Z,3.33
2022-11-21T02:33:09.998Z,3.13
2022-11-21T02:36:33.757Z,3.10
2022-11-21T02:39:36.986Z,3.67
2022-11-21T02:42:52.355Z,3.22
2022-11-21T02:45:54.703Z,3.38
2022-11-21T02:48:58.694Z,3.35
2022-11-21T02:52:00.603Z,2.90
2022-11-21T02:55:02.617Z,2.90
2022-11-21T02:58:05.655Z,3.22
2022-11-21T03:01:07.646Z,3.10
2022-11-21T03:04:09.586Z,2.83
2022-11-21T03:07:11.364Z,3.03
2022-11-21T03:10:13.405Z,3.03
2022-11-21T03:13:15.417Z,2.70
2022-11-21T03:16:17.246Z,2.90
2022-11-21T03:19:18.940Z,2.70
2022-11-21T03:22:20.788Z,2.97
2022-11-21T03:25:22.838Z,2.97
2022-11-21T03:28:24.926Z,2.60
2022-11-21T03:31:26.621Z,2.40
2022-11-21T03:34:28.620Z,3.17
2022-11-21T03:37:30.565Z,2.58
2022-11-21T03:40:32.409Z,2.70
2022-11-21T03:43:34.237Z,2.63
2022-11-21T03:46:38.292Z,2.85
2022-11-21T03:49:40.045Z,2.70
2022-11-21T03:52:42.075Z,2.88
2022-11-21T03:55:43.846Z,2.30
2022-11-21T03:58:45.592Z,2.00
2022-11-21T04:01:47.584Z,2.60
2022-11-21T04:04:49.574Z,2.33
2022-11-21T04:07:51.626Z,2.63
2022-11-21T04:10:54.512Z,2.80
2022-11-21T04:13:56.607Z,3.17
2022-11-21T04:16:58.405Z,2.78
2022-11-21T04:20:00.270Z,3.25
2022-11-21T04:23:02.325Z,2.42
2022-11-21T04:26:04.670Z,2.70
2022-11-21T04:29:06.634Z,3.00
2022-11-21T04:32:08.852Z,2.55
2022-11-21T04:35:10.609Z,2.20
2022-11-21T04:38:13.883Z,2.35
2022-11-21T04:41:15.814Z,3.05
2022-11-21T04:44:17.775Z,2.75
2022-11-21T04:47:19.503Z,2.40
2022-11-21T04:50:21.985Z,2.75
2022-11-21T04:53:23.765Z,2.78
2022-11-21T04:56:25.708Z,3.10
2022-11-21T04:59:28.005Z,2.70
2022-11-21T05:02:29.797Z,2.65
2022-11-21T05:05:32.113Z,3.58
2022-11-21T05:08:34.076Z,3.30
2022-11-21T05:11:54.338Z,3.47
2022-11-21T05:14:56.862Z,3.58
2022-11-21T05:18:01.743Z,3.57
2022-11-21T05:21:04.062Z,3.30
2022-11-21T05:24:06.217Z,3.60
2022-11-21T05:27:08.217Z,4.20
2022-11-21T05:30:11.577Z,4.40
2022-11-21T05:36:15.083Z,4.05
2022-11-21T05:39:17.079Z,4.20
2022-11-21T05:42:38.813Z,4.63
2022-11-21T05:45:40.898Z,4.78
2022-11-21T05:48:42.721Z,4.68
2022-11-21T05:51:44.546Z,4.75
2022-11-21T05:54:46.348Z,4.78
2022-11-21T05:57:48.601Z,5.10
2022-11-21T06:00:59.574Z,4.00
2022-11-21T06:04:02.039Z,4.82
2022-11-21T06:07:05.920Z,4.60
2022-11-21T06:10:08.192Z,4.40
2022-11-21T06:13:25.106Z,4.43
2022-11-21T06:16:27.099Z,4.13
2022-11-21T06:19:28.889Z,4.35
2022-11-21T06:22:30.889Z,4.03
2022-11-21T06:25:32.674Z,4.35
2022-11-21T06:28:36.787Z,4.30
2022-11-21T06:31:38.540Z,3.92
2022-11-21T06:34:40.663Z,3.45
2022-11-21T06:37:42.702Z,3.70
2022-11-21T06:40:44.780Z,3.58
2022-11-21T06:43:47.002Z,3.83
2022-11-21T06:46:51.486Z,3.88
2022-11-21T06:49:53.670Z,4.20
2022-11-21T06:53:00.806Z,3.72
2022-11-21T06:56:03.574Z,3.63
2022-11-21T06:59:05.750Z,3.35
2022-11-21T07:02:11.033Z,2.83
2022-11-21T07:05:12.782Z,3.78
2022-11-21T07:08:14.708Z,4.25
2022-11-21T07:11:25.199Z,3.63
2022-11-21T07:14:27.337Z,3.67
2022-11-21T07:17:29.565Z,3.03
2022-11-21T07:20:31.319Z,3.38
2022-11-21T07:23:34.495Z,2.88
2022-11-21T07:26:36.240Z,3.28
2022-11-21T07:29:38.154Z,3.97
2022-11-21T07:32:40.359Z,3.30
2022-11-21T07:35:43.308Z,3.78
2022-11-21T07:38:46.638Z,2.97
2022-11-21T07:41:48.314Z,2.70
2022-11-21T07:44:50.097Z,2.70
2022-11-21T07:48:01.486Z,3.05
2022-11-21T07:51:05.110Z,3.13
2022-11-21T07:54:06.949Z,2.90
2022-11-21T07:57:08.822Z,2.75
2022-11-21T08:00:11.251Z,3.35
2022-11-21T08:03:13.479Z,3.35
2022-11-21T08:06:15.999Z,3.00
2022-11-21T08:09:17.953Z,2.60
2022-11-21T08:12:19.810Z,2.90
2022-11-21T08:15:21.752Z,3.20
2022-11-21T08:18:23.637Z,2.55
2022-11-21T08:21:25.655Z,2.72
2022-11-21T08:24:27.678Z,2.63
2022-11-21T08:27:29.865Z,2.60
2022-11-21T08:30:33.462Z,2.40
2022-11-21T08:33:35.623Z,1.75
2022-11-21T08:36:37.540Z,1.88
2022-11-21T08:39:39.267Z,1.75
2022-11-21T08:42:41.434Z,2.20
2022-11-21T08:45:43.182Z,1.73
2022-11-21T08:48:44.873Z,2.30
2022-11-21T08:51:50.026Z,1.98
2022-11-21T08:54:51.699Z,1.75
2022-11-21T08:57:53.622Z,2.22
2022-11-21T09:00:55.325Z,2.25
2022-11-21T09:03:57.065Z,2.95
2022-11-21T09:06:58.903Z,3.05
2022-11-21T09:10:00.643Z,2.80
2022-11-21T09:13:02.698Z,2.63
2022-11-21T09:16:23.161Z,2.45
2022-11-21T09:19:27.031Z,2.40
2022-11-21T09:22:29.139Z,2.38
2022-11-21T09:25:30.841Z,2.60
2022-11-21T09:28:32.803Z,1.98
2022-11-21T09:31:34.756Z,2.80
2022-11-21T09:34:36.650Z,2.45
2022-11-21T09:37:38.962Z,2.75
2022-11-21T09:40:46.670Z,2.67
2022-11-21T09:44:21.841Z,2.35
2022-11-21T09:47:26.644Z,2.40
2022-11-21T09:53:53.125Z,2.58
2022-11-21T09:56:56.387Z,2.25
2022-11-21T09:59:58.214Z,2.08
2022-11-21T10:03:00.979Z,2.38
2022-11-21T10:06:11.956Z,2.25
2022-11-21T10:09:23.748Z,2.30
2022-11-21T10:12:44.274Z,1.58
2022-11-21T10:16:24.532Z,2.38
2022-11-21T10:19:38.581Z,2.47
2022-11-21T10:23:09.724Z,3.72
2022-11-21T10:26:55.776Z,2.78
2022-11-21T10:30:18.132Z,3.15
2022-11-21T10:33:33.557Z,2.75
2022-11-21T10:36:39.466Z,3.00
2022-11-21T10:39:48.151Z,2.85
2022-11-21T10:42:58.562Z,2.72
2022-11-21T10:46:00.272Z,2.67
2022-11-21T10:49:04.566Z,2.42
2022-11-21T10:52:17.678Z,2.17
2022-11-21T10:55:20.022Z,2.45
2022-11-21T10:58:48.350Z,2.63
2022-11-21T11:02:02.237Z,2.50
2022-11-21T11:05:16.116Z,2.40
2022-11-21T11:08:17.892Z,2.45
2022-11-21T11:11:25.841Z,2.55
2022-11-21T11:14:32.358Z,2.28
2022-11-21T11:17:34.523Z,2.17
2022-11-21T11:20:42.716Z,2.30
2022-11-21T11:23:46.888Z,2.00
2022-11-21T11:26:49.271Z,2.05
2022-11-21T11:29:53.222Z,2.13
2022-11-21T11:32:55.189Z,2.13
2022-11-21T11:36:29.080Z,2.38
2022-11-21T11:39:33.575Z,2.22
2022-11-21T11:43:00.100Z,2.20
2022-11-21T11:46:52.672Z,2.28
2022-11-21T11:50:11.534Z,1.95
2022-11-21T11:53:46.983Z,1.58
2022-11-21T11:56:49.706Z,2.20
2022-11-21T12:00:05.336Z,2.13
2022-11-21T12:03:21.928Z,2.30
2022-11-21T12:07:07.225Z,2.83
2022-11-21T12:10:12.182Z,3.30
2022-11-21T12:13:18.332Z,2.00
2022-11-21T12:16:27.348Z,1.70
2022-11-21T12:19:29.793Z,1.80
2022-11-21T12:22:31.971Z,1.90
2022-11-21T12:25:40.902Z,2.42
2022-11-21T12:29:01.880Z,2.42
2022-11-21T12:32:17.773Z,1.90
2022-11-21T12:35:41.410Z,1.83
2022-11-21T12:39:09.540Z,2.00
2022-11-21T12:42:56.230Z,2.10
2022-11-21T12:46:21.230Z,1.80
2022-11-21T12:50:10.384Z,2.03
2022-11-21T12:53:55.971Z,2.55
2022-11-21T12:57:12.674Z,2.05
2022-11-21T13:00:20.111Z,2.38
2022-11-21T13:03:49.484Z,2.50
2022-11-21T13:06:53.570Z,2.17
2022-11-21T13:09:58.555Z,2.20
2022-11-21T13:13:19.594Z,2.47
2022-11-21T13:16:37.675Z,2.20
2022-11-21T13:19:53.455Z,2.30
2022-11-21T13:22:57.328Z,2.22
2022-11-21T13:25:59.318Z,3.05
2022-11-21T13:29:12.771Z,2.10
2022-11-21T13:32:52.654Z,2.42
2022-11-21T13:35:54.685Z,2.95
2022-11-21T13:39:00.058Z,2.63
2022-11-21T13:42:22.639Z,3.17
2022-11-21T13:45:43.981Z,2.70
2022-11-21T13:49:00.999Z,2.78
2022-11-21T13:52:19.849Z,2.85
2022-11-21T13:55:49.601Z,3.17
2022-11-21T13:59:03.867Z,2.72
2022-11-21T14:02:10.959Z,2.95
2022-11-21T14:05:15.956Z,2.67
2022-11-21T14:08:27.120Z,2.58
2022-11-21T14:11:56.829Z,3.25
2022-11-21T14:15:01.672Z,3.38
2022-11-21T14:18:03.863Z,2.85
2022-11-21T14:21:08.303Z,2.95
2022-11-21T14:24:17.689Z,3.10
2022-11-21T14:27:40.897Z,2.60
2022-11-21T14:30:46.832Z,2.47
2022-11-21T14:33:48.886Z,2.55
2022-11-21T14:36:50.868Z,3.15
2022-11-21T14:39:57.135Z,2.85
2022-11-21T14:42:59.894Z,2.60
2022-11-21T14:46:01.771Z,3.20
2022-11-21T14:49:15.724Z,2.83
2022-11-21T14:52:22.720Z,3.65
2022-11-21T14:55:33.194Z,3.15
2022-11-21T14:58:35.166Z,2.67
2022-11-21T15:01:37.046Z,2.95
2022-11-21T15:04:38.963Z,3.03
2022-11-21T15:07:43.563Z,3.38
2022-11-21T15:10:45.908Z,2.60
2022-11-21T15:14:14.402Z,2.83
2022-11-21T15:17:16.875Z,2.70
2022-11-21T15:20:20.805Z,2.95
2022-11-21T15:23:27.846Z,2.67
2022-11-21T15:26:32.134Z,2.78
2022-11-21T15:29:34.098Z,2.70
2022-11-21T15:33:07.149Z,2.83
2022-11-21T15:36:13.726Z,2.50
2022-11-21T15:39:22.569Z,2.78
2022-11-21T15:42:42.509Z,2.13
2022-11-21T15:45:44.226Z,2.30
2022-11-21T15:49:31.481Z,2.20
2022-11-21T15:52:29.811Z,2.58
2022-11-21T15:55:32.431Z,2.40
2022-11-21T15:58:34.336Z,2.63
2022-11-21T16:01:36.470Z,2.40
2022-11-21T16:04:38.304Z,2.90
2022-11-21T16:07:41.212Z,2.55
2022-11-21T16:10:43.188Z,3.38
2022-11-21T16:13:49.623Z,3.40
2022-11-21T16:16:51.482Z,3.53
2022-11-21T16:19:53.494Z,3.10
2022-11-21T16:22:55.863Z,3.20
2022-11-21T16:25:57.657Z,2.72
2022-11-21T16:29:01.035Z,3.05
2022-11-21T16:35:05.343Z,2.42
2022-11-21T16:38:08.695Z,3.13
2022-11-21T16:44:14.223Z,2.47
2022-11-21T16:47:18.973Z,3.08
2022-11-21T16:50:22.050Z,2.67
2022-11-21T16:53:24.027Z,5.60
2022-11-21T16:56:25.925Z,5.28
2022-11-21T16:59:27.944Z,4.43
2022-11-21T17:02:30.296Z,3.83
2022-11-21T17:05:32.106Z,3.70
2022-11-21T17:08:34.768Z,3.72
2022-11-21T17:11:36.803Z,5.30
2022-11-21T17:14:38.566Z,16.40
2022-11-21T17:17:41.717Z,34.90
2022-11-21T17:20:44.189Z,14.32
2022-11-21T17:27:06.903Z,8.45
2022-11-21T17:30:08.971Z,4.13
2022-11-21T17:33:11.131Z,7.07
2022-11-21T17:36:15.156Z,5.20
2022-11-21T17:39:18.509Z,6.70
2022-11-21T17:45:22.204Z,3.35
2022-11-21T17:48:24.070Z,20.58
2022-11-21T17:51:29.345Z,15.45
2022-11-21T17:54:31.335Z,10.48
2022-11-21T17:57:33.246Z,35.63
2022-11-21T18:00:35.118Z,14.35
2022-11-21T18:03:37.198Z,36.15
2022-11-21T18:06:40.216Z,56.60
2022-11-21T18:09:42.033Z,28.10
2022-11-21T18:12:44.994Z,17.60
2022-11-21T18:15:48.095Z,53.92
2022-11-21T18:18:50.231Z,47.08
2022-11-21T18:21:51.974Z,27.20
2022-11-21T18:24:53.698Z,13.45
2022-11-21T18:27:56.504Z,4.90
2022-11-21T18:31:16.074Z,6.30
2022-11-21T18:34:17.938Z,13.75
2022-11-21T18:37:19.721Z,9.05
2022-11-21T18:40:22.125Z,4.57
2022-11-21T18:43:23.897Z,5.75
2022-11-21T18:46:27.748Z,4.32
2022-11-21T18:49:29.781Z,4.97
2022-11-21T18:52:34.014Z,4.63
2022-11-21T18:55:39.375Z,2.80
2022-11-21T18:58:43.281Z,2.58
2022-11-21T19:01:45.225Z,3.20
2022-11-21T19:04:47.269Z,2.88
2022-11-21T19:07:52.700Z,3.70
2022-11-21T19:10:54.813Z,2.67
2022-11-21T19:13:58.291Z,3.38
2022-11-21T19:17:00.186Z,3.65
2022-11-21T19:20:02.200Z,3.33
2022-11-21T19:23:04.413Z,3.58
2022-11-21T19:26:14.837Z,3.45
2022-11-21T19:29:17.054Z,3.55
2022-11-21T19:32:19.069Z,4.85
2022-11-21T19:35:23.608Z,6.82
2022-11-21T19:38:25.578Z,22.13
2022-11-21T19:41:27.411Z,17.70
2022-11-21T19:44:29.156Z,11.45
2022-11-21T19:47:32.558Z,9.60
2022-11-21T19:53:38.429Z,5.10
2022-11-21T19:56:40.531Z,5.13
2022-11-21T19:59:46.474Z,4.45
2022-11-21T20:02:48.869Z,3.80
2022-11-21T20:05:52.009Z,3.92
2022-11-21T20:09:00.746Z,4.25
2022-11-21T20:12:03.573Z,4.18
2022-11-21T20:15:05.798Z,4.10
2022-11-21T20:18:08.396Z,3.92
2022-11-21T20:21:11.504Z,3.90
2022-11-21T20:24:14.167Z,4.00
2022-11-21T20:27:16.612Z,3.60
2022-11-21T20:30:23.800Z,3.50
2022-11-21T20:33:25.776Z,3.60
2022-11-21T20:36:29.849Z,3.58
2022-11-21T20:39:32.311Z,3.60
2022-11-21T20:42:34.490Z,3.00
2022-11-21T20:46:07.696Z,2.97
2022-11-21T20:48:58.550Z,2.90
2022-11-21T20:55:22.454Z,3.03
2022-11-21T20:58:24.398Z,3.00
2022-11-21T21:01:27.832Z,2.88
2022-11-21T21:04:30.023Z,2.63
2022-11-21T21:07:32.097Z,2.40
2022-11-21T21:10:58.245Z,2.97
2022-11-21T21:13:55.817Z,2.50
2022-11-21T21:16:57.585Z,2.50
2022-11-21T21:19:59.582Z,2.60
2022-11-21T21:23:01.530Z,2.53
2022-11-21T21:26:15.451Z,2.17
2022-11-21T21:29:20.439Z,2.60
2022-11-21T21:32:22.395Z,2.50
2022-11-21T21:35:24.210Z,2.35
2022-11-21T21:38:25.996Z,3.15
2022-11-21T21:41:30.524Z,2.30
2022-11-21T21:44:33.679Z,2.70
2022-11-21T21:50:37.567Z,2.17
2022-11-21T21:53:40.208Z,2.45
2022-11-21T21:56:42.222Z,2.17
2022-11-21T21:59:44.112Z,2.55
2022-11-21T22:02:45.887Z,2.90
2022-11-21T22:05:47.614Z,2.47
2022-11-21T22:08:50.624Z,2.17
2022-11-21T22:11:54.095Z,2.30
2022-11-21T22:14:55.937Z,1.88
2022-11-21T22:17:57.943Z,1.60
2022-11-21T22:21:00.089Z,1.48
2022-11-21T22:24:31.549Z,2.05
2022-11-21T22:27:34.252Z,1.70
2022-11-21T22:30:36.178Z,1.95
2022-11-21T22:33:39.431Z,2.25
2022-11-21T22:36:41.814Z,1.75
2022-11-21T22:39:43.656Z,1.58
2022-11-21T22:42:45.404Z,1.60
2022-11-21T22:45:47.386Z,1.40
2022-11-21T22:48:49.506Z,1.60
2022-11-21T22:51:51.327Z,1.50
2022-11-21T22:54:53.142Z,2.22
2022-11-21T22:57:54.847Z,1.60
2022-11-21T23:01:01.513Z,1.23
2022-11-21T23:04:03.371Z,1.80
2022-11-21T23:07:05.379Z,1.38
2022-11-21T23:10:07.806Z,1.40
2022-11-21T23:13:09.568Z,1.30
2022-11-21T23:16:12.480Z,1.10
2022-11-21T23:19:14.231Z,1.55
2022-11-21T23:22:15.978Z,1.38
2022-11-21T23:25:17.696Z,1.98
2022-11-21T23:28:20.350Z,1.52
2022-11-21T23:31:22.276Z,2.05
2022-11-21T23:34:24.162Z,1.63
2022-11-21T23:37:26.227Z,1.77
2022-11-21T23:40:28.187Z,1.70
2022-11-21T23:43:29.927Z,1.88
2022-11-21T23:46:31.921Z,1.88
2022-11-21T23:49:33.714Z,1.92
2022-11-21T23:52:35.524Z,2.80
2022-11-21T23:55:37.224Z,2.33
2022-11-21T23:58:39.722Z,2.58
